createdAt,value
2019-04-03T00:01:47.043Z,19.67
2019-04-03T00:04:16.009Z,20.93
2019-04-03T00:06:44.988Z,20.97
2019-04-03T00:09:13.616Z,14.33
2019-04-03T00:11:42.564Z,17.03
2019-04-03T00:14:12.878Z,19.10
2019-04-03T00:16:42.100Z,17.53
2019-04-03T00:19:10.780Z,18.63
2019-04-03T00:21:39.936Z,20.10
2019-04-03T00:24:09.171Z,16.83
2019-04-03T00:26:38.609Z,20.73
2019-04-03T00:29:07.568Z,21.13
2019-04-03T00:31:36.278Z,20.07
2019-04-03T00:34:05.253Z,15.37
2019-04-03T00:36:34.314Z,18.40
2019-04-03T00:39:03.334Z,19.40
2019-04-03T00:41:32.231Z,17.83
2019-04-03T00:44:01.225Z,24.67
2019-04-03T00:46:30.505Z,18.83
2019-04-03T00:48:59.095Z,17.50
2019-04-03T00:51:28.099Z,20.07
2019-04-03T00:53:57.971Z,17.50
2019-04-03T00:56:27.523Z,21.03
2019-04-03T00:58:56.150Z,20.97
2019-04-03T01:01:26.549Z,17.83
2019-04-03T01:03:56.860Z,19.97
2019-04-03T01:06:26.693Z,21.83
2019-04-03T01:08:59.411Z,23.10
2019-04-03T01:11:30.784Z,20.10
2019-04-03T01:14:01.110Z,18.07
2019-04-03T01:16:32.293Z,19.07
2019-04-03T01:19:00.807Z,17.60
2019-04-03T01:21:29.417Z,22.33
2019-04-03T01:23:58.029Z,20.13
2019-04-03T01:26:27.020Z,16.53
2019-04-03T01:28:56.072Z,21.63
2019-04-03T01:31:24.675Z,16.47
2019-04-03T01:33:53.331Z,18.87
2019-04-03T01:36:22.258Z,18.60
2019-04-03T01:38:51.168Z,16.70
2019-04-03T01:41:21.511Z,17.57
2019-04-03T01:43:53.068Z,17.50
2019-04-03T01:46:21.625Z,22.23
2019-04-03T01:48:50.285Z,19.57
2019-04-03T01:51:18.889Z,17.60
2019-04-03T01:53:47.899Z,17.40
2019-04-03T01:56:16.889Z,26.07
2019-04-03T01:58:45.779Z,17.93
2019-04-03T02:01:14.675Z,22.43
2019-04-03T02:03:43.312Z,19.50
2019-04-03T02:06:13.587Z,19.67
2019-04-03T02:08:44.908Z,20.37
2019-04-03T02:11:13.645Z,18.60
2019-04-03T02:13:42.407Z,20.53
2019-04-03T02:16:11.299Z,19.13
2019-04-03T02:18:39.923Z,20.63
2019-04-03T02:21:08.846Z,18.93
2019-04-03T02:23:37.766Z,21.63
2019-04-03T02:26:06.699Z,19.83
2019-04-03T02:28:35.397Z,21.87
2019-04-03T02:31:04.063Z,20.93
2019-04-03T02:33:32.704Z,20.80
2019-04-03T02:36:01.609Z,18.33
2019-04-03T02:38:30.492Z,19.73
2019-04-03T02:40:59.510Z,19.60
2019-04-03T02:43:28.726Z,19.57
2019-04-03T02:45:57.585Z,23.03
2019-04-03T02:48:26.481Z,21.43
2019-04-03T02:50:55.505Z,20.40
2019-04-03T02:53:24.837Z,21.37
2019-04-03T02:55:53.848Z,20.70
2019-04-03T02:58:23.405Z,21.67
2019-04-03T03:00:52.255Z,16.83
2019-04-03T03:03:21.822Z,19.73
2019-04-03T03:05:50.482Z,23.63
2019-04-03T03:08:22.197Z,22.00
2019-04-03T03:10:51.719Z,25.80
2019-04-03T03:13:20.622Z,19.43
2019-04-03T03:15:49.824Z,21.37
2019-04-03T03:18:18.945Z,24.00
2019-04-03T03:20:48.461Z,21.50
2019-04-03T03:23:17.441Z,20.70
2019-04-03T03:25:47.531Z,22.33
2019-04-03T03:28:16.545Z,25.27
2019-04-03T03:30:55.787Z,20.50
2019-04-03T03:33:33.113Z,25.20
2019-04-03T03:35:49.215Z,19.73
2019-04-03T03:38:18.438Z,22.20
2019-04-03T03:40:49.302Z,21.87
2019-04-03T03:43:18.759Z,21.07
2019-04-03T03:45:51.421Z,19.20
2019-04-03T03:48:19.190Z,24.83
2019-04-03T03:50:48.012Z,22.77
2019-04-03T03:53:17.012Z,24.17
2019-04-03T03:55:46.692Z,27.20
2019-04-03T03:58:16.013Z,23.97
2019-04-03T04:00:48.699Z,19.93
2019-04-03T04:03:16.256Z,25.70
2019-04-03T04:05:45.462Z,24.30
2019-04-03T04:08:14.432Z,19.87
2019-04-03T04:10:43.614Z,24.57
2019-04-03T04:13:15.496Z,24.37
2019-04-03T04:15:44.215Z,22.17
2019-04-03T04:18:15.072Z,22.77
2019-04-03T04:20:43.689Z,22.40
2019-04-03T04:23:12.820Z,27.53
2019-04-03T04:25:43.544Z,31.73
2019-04-03T04:28:12.850Z,26.13
2019-04-03T04:30:43.716Z,23.73
2019-04-03T04:33:12.321Z,23.23
2019-04-03T04:35:41.391Z,26.77
2019-04-03T04:38:10.010Z,28.87
2019-04-03T04:40:39.408Z,24.30
2019-04-03T04:43:08.619Z,21.57
2019-04-03T04:45:37.258Z,22.60
2019-04-03T04:48:05.889Z,21.73
2019-04-03T04:50:34.528Z,21.87
2019-04-03T04:53:03.809Z,24.07
2019-04-03T04:55:34.509Z,21.27
2019-04-03T04:58:04.751Z,26.87
2019-04-03T05:00:34.170Z,26.87
2019-04-03T05:03:02.808Z,24.77
2019-04-03T05:05:31.747Z,25.20
2019-04-03T05:08:01.860Z,24.37
2019-04-03T05:10:30.970Z,21.30
2019-04-03T05:13:00.442Z,23.97
2019-04-03T05:15:29.062Z,23.03
2019-04-03T05:17:58.333Z,22.47
2019-04-03T05:20:27.264Z,23.47
2019-04-03T05:22:56.335Z,20.83
2019-04-03T05:25:24.946Z,25.97
2019-04-03T05:27:53.919Z,25.30
2019-04-03T05:30:32.779Z,26.03
2019-04-03T05:33:01.749Z,23.33
2019-04-03T05:35:30.427Z,23.43
2019-04-03T05:37:59.046Z,26.43
2019-04-03T05:40:27.766Z,24.40
2019-04-03T05:42:59.247Z,26.10
2019-04-03T05:45:27.020Z,24.33
2019-04-03T05:47:55.638Z,21.67
2019-04-03T05:50:26.440Z,23.90
2019-04-03T05:52:55.010Z,27.07
2019-04-03T05:55:24.240Z,22.77
2019-04-03T05:57:53.210Z,19.87
2019-04-03T06:00:22.210Z,22.87
2019-04-03T06:02:53.147Z,23.97
2019-04-03T06:05:22.221Z,24.03
2019-04-03T06:07:51.135Z,25.87
2019-04-03T06:10:19.770Z,23.53
2019-04-03T06:12:48.402Z,23.23
2019-04-03T06:15:17.701Z,26.93
2019-04-03T06:17:46.873Z,23.07
2019-04-03T06:20:16.571Z,28.20
2019-04-03T06:22:45.611Z,25.77
2019-04-03T06:25:14.583Z,26.13
2019-04-03T06:27:45.793Z,28.23
2019-04-03T06:30:14.534Z,25.90
2019-04-03T06:32:43.309Z,26.43
2019-04-03T06:35:13.735Z,28.17
2019-04-03T06:37:43.051Z,27.50
2019-04-03T06:40:12.133Z,25.93
2019-04-03T06:42:44.115Z,27.03
2019-04-03T06:45:15.409Z,22.90
2019-04-03T06:47:43.030Z,21.90
2019-04-03T06:50:13.256Z,28.43
2019-04-03T06:52:42.544Z,26.33
2019-04-03T06:55:11.846Z,26.53
2019-04-03T06:57:41.048Z,28.47
2019-04-03T07:00:10.253Z,24.77
2019-04-03T07:02:38.864Z,24.33
2019-04-03T07:05:09.677Z,22.40
2019-04-03T07:07:38.343Z,23.87
2019-04-03T07:10:09.171Z,31.10
2019-04-03T07:12:37.975Z,25.30
2019-04-03T07:15:07.767Z,24.93
2019-04-03T07:17:36.785Z,26.70
2019-04-03T07:20:13.739Z,27.23
2019-04-03T07:22:36.858Z,26.73
2019-04-03T07:25:06.481Z,24.63
2019-04-03T07:27:37.411Z,26.10
2019-04-03T07:30:08.407Z,26.87
2019-04-03T07:32:37.400Z,31.00
2019-04-03T07:35:09.336Z,26.93
2019-04-03T07:37:37.192Z,26.43
2019-04-03T07:40:06.862Z,24.13
2019-04-03T07:42:35.659Z,26.63
2019-04-03T07:45:05.066Z,26.03
2019-04-03T07:47:34.905Z,27.87
2019-04-03T07:50:06.336Z,26.43
2019-04-03T07:52:35.288Z,23.60
2019-04-03T07:55:05.338Z,25.70
2019-04-03T07:57:34.812Z,26.60
2019-04-03T08:00:06.193Z,23.70
2019-04-03T08:02:34.595Z,23.00
2019-04-03T08:05:03.606Z,26.87
2019-04-03T08:07:32.746Z,24.13
2019-04-03T08:10:01.934Z,22.97
2019-04-03T08:12:30.574Z,27.07
2019-04-03T08:14:59.483Z,24.03
2019-04-03T08:17:28.135Z,25.67
2019-04-03T08:19:56.870Z,25.63
2019-04-03T08:22:25.773Z,27.03
2019-04-03T08:24:54.422Z,25.30
2019-04-03T08:27:24.417Z,36.23
2019-04-03T08:29:53.455Z,26.50
2019-04-03T08:32:22.093Z,26.03
2019-04-03T08:34:51.027Z,23.33
2019-04-03T08:37:29.698Z,27.50
2019-04-03T08:39:50.859Z,27.53
2019-04-03T08:42:19.714Z,26.17
2019-04-03T08:44:49.243Z,27.00
2019-04-03T08:47:17.881Z,26.47
2019-04-03T08:49:47.060Z,27.87
2019-04-03T08:52:15.770Z,22.43
2019-04-03T08:54:45.049Z,29.00
2019-04-03T08:57:13.677Z,22.67
2019-04-03T08:59:42.840Z,23.13
2019-04-03T09:02:12.923Z,25.77
2019-04-03T09:04:42.251Z,24.43
2019-04-03T09:07:11.063Z,22.80
2019-04-03T09:09:40.614Z,23.47
2019-04-03T09:12:09.331Z,25.43
2019-04-03T09:14:38.259Z,22.87
2019-04-03T09:17:07.380Z,22.17
2019-04-03T09:19:36.183Z,21.53
2019-04-03T09:22:05.311Z,26.60
2019-04-03T09:24:34.512Z,22.90
2019-04-03T09:27:03.144Z,21.77
2019-04-03T09:29:32.091Z,24.73
2019-04-03T09:32:01.496Z,20.33
2019-04-03T09:34:33.414Z,22.40
2019-04-03T09:37:00.662Z,22.73
2019-04-03T09:39:29.619Z,25.73
2019-04-03T09:41:58.805Z,23.07
2019-04-03T09:44:27.791Z,21.00
2019-04-03T09:46:56.458Z,22.33
2019-04-03T09:49:25.092Z,22.00
2019-04-03T09:51:53.885Z,21.67
2019-04-03T09:54:22.839Z,21.93
2019-04-03T09:56:59.384Z,22.33
2019-04-03T09:59:21.811Z,21.80
2019-04-03T10:01:50.771Z,26.23
2019-04-03T10:04:20.963Z,22.47
2019-04-03T10:06:50.259Z,22.70
2019-04-03T10:09:19.262Z,22.27
2019-04-03T10:11:50.591Z,22.80
2019-04-03T10:14:18.896Z,21.93
2019-04-03T10:16:47.778Z,22.40
2019-04-03T10:19:17.079Z,17.10
2019-04-03T10:21:45.704Z,17.73
2019-04-03T10:24:14.357Z,18.47
2019-04-03T10:26:43.246Z,19.37
2019-04-03T10:29:12.017Z,18.70
2019-04-03T10:31:40.925Z,19.17
2019-04-03T10:34:09.526Z,21.27
2019-04-03T10:36:41.603Z,19.97
2019-04-03T10:39:10.679Z,19.23
2019-04-03T10:41:39.446Z,21.43
2019-04-03T10:44:09.353Z,21.47
2019-04-03T10:46:39.082Z,20.90
2019-04-03T10:49:08.507Z,18.53
2019-04-03T10:51:40.825Z,21.80
2019-04-03T10:54:08.738Z,22.27
2019-04-03T10:56:37.615Z,20.33
2019-04-03T10:59:12.183Z,19.60
2019-04-03T11:01:37.158Z,20.93
2019-04-03T11:04:06.136Z,20.00
2019-04-03T11:06:37.423Z,18.53
2019-04-03T11:09:08.854Z,19.27
2019-04-03T11:11:37.732Z,20.37
2019-04-03T11:14:08.051Z,19.50
2019-04-03T11:16:39.130Z,18.77
2019-04-03T11:19:08.049Z,17.57
2019-04-03T11:21:37.180Z,17.70
2019-04-03T11:24:07.168Z,18.70
2019-04-03T11:26:36.138Z,18.13
2019-04-03T11:29:08.793Z,19.57
2019-04-03T11:31:41.197Z,18.87
2019-04-03T11:34:07.155Z,17.67
2019-04-03T11:36:35.923Z,19.60
2019-04-03T11:39:13.411Z,18.87
2019-04-03T11:41:37.400Z,25.30
2019-04-03T11:44:06.121Z,20.53
2019-04-03T11:46:35.486Z,21.37
2019-04-03T11:49:04.612Z,23.60
2019-04-03T11:51:34.305Z,23.43
2019-04-03T11:54:07.028Z,20.27
2019-04-03T11:56:33.976Z,17.93
2019-04-03T11:59:03.568Z,23.17
2019-04-03T12:01:33.134Z,19.50
2019-04-03T12:04:02.162Z,23.67
2019-04-03T12:06:31.079Z,30.30
2019-04-03T12:09:01.126Z,25.07
2019-04-03T12:11:30.066Z,27.13
2019-04-03T12:13:58.719Z,27.07
2019-04-03T12:16:27.359Z,27.53
2019-04-03T12:18:56.151Z,30.67
2019-04-03T12:21:25.408Z,30.87
2019-04-03T12:23:54.464Z,29.30
2019-04-03T12:26:23.180Z,31.83
2019-04-03T12:28:52.096Z,27.43
2019-04-03T12:31:20.994Z,28.50
2019-04-03T12:33:54.812Z,21.70
2019-04-03T12:36:20.402Z,25.63
2019-04-03T12:38:49.416Z,31.40
2019-04-03T12:41:18.053Z,26.10
2019-04-03T12:43:47.846Z,27.37
2019-04-03T12:46:18.947Z,24.10
2019-04-03T12:48:48.708Z,28.60
2019-04-03T12:51:20.351Z,23.47
2019-04-03T12:53:49.433Z,22.37
2019-04-03T12:56:19.012Z,23.80
2019-04-03T12:58:47.941Z,22.63
2019-04-03T13:01:18.441Z,24.27
2019-04-03T13:03:48.211Z,22.50
2019-04-03T13:06:16.926Z,25.00
2019-04-03T13:08:46.317Z,25.00
2019-04-03T13:11:15.496Z,26.83
2019-04-03T13:13:45.188Z,29.03
2019-04-03T13:16:14.704Z,29.47
2019-04-03T13:18:43.643Z,24.83
2019-04-03T13:21:13.037Z,31.00
2019-04-03T13:23:45.166Z,29.03
2019-04-03T13:26:12.163Z,28.17
2019-04-03T13:28:41.464Z,27.33
2019-04-03T13:31:10.150Z,26.30
2019-04-03T13:33:39.349Z,27.90
2019-04-03T13:36:08.539Z,28.57
2019-04-03T13:38:38.157Z,27.33
2019-04-03T13:41:09.296Z,30.83
2019-04-03T13:43:37.919Z,30.73
2019-04-03T13:46:07.085Z,26.87
2019-04-03T13:48:36.486Z,28.77
2019-04-03T13:51:05.591Z,31.37
2019-04-03T13:53:36.581Z,32.50
2019-04-03T13:56:06.730Z,29.00
2019-04-03T13:58:36.460Z,29.93
2019-04-03T14:01:08.200Z,29.93
2019-04-03T14:03:36.281Z,35.67
2019-04-03T14:06:05.475Z,27.67
2019-04-03T14:08:34.791Z,31.50
2019-04-03T14:11:04.086Z,31.67
2019-04-03T14:13:32.708Z,31.00
2019-04-03T14:16:01.686Z,30.67
2019-04-03T14:18:30.936Z,30.43
2019-04-03T14:21:00.152Z,32.77
2019-04-03T14:23:29.579Z,32.13
2019-04-03T14:26:05.222Z,27.40
2019-04-03T14:28:28.917Z,29.63
2019-04-03T14:30:58.062Z,34.53
2019-04-03T14:33:26.972Z,37.00
2019-04-03T14:35:55.855Z,32.83
2019-04-03T14:38:27.643Z,34.37
2019-04-03T14:40:55.151Z,28.87
2019-04-03T14:43:23.859Z,32.37
2019-04-03T14:45:53.280Z,29.80
2019-04-03T14:48:22.281Z,31.50
2019-04-03T14:50:50.986Z,35.97
2019-04-03T14:53:20.233Z,31.33
2019-04-03T14:55:50.575Z,38.97
2019-04-03T14:58:19.999Z,36.03
2019-04-03T15:00:49.847Z,38.30
2019-04-03T15:03:19.713Z,30.63
2019-04-03T15:05:49.102Z,37.63
2019-04-03T15:08:18.298Z,39.03
2019-04-03T15:17:39.070Z,36.97
2019-04-03T15:20:08.669Z,31.67
2019-04-03T15:22:37.389Z,33.60
2019-04-03T15:25:07.477Z,32.10
2019-04-03T15:27:37.017Z,35.60
2019-04-03T15:30:11.025Z,33.63
2019-04-03T15:32:40.018Z,30.93
2019-04-03T15:35:09.163Z,28.77
2019-04-03T15:37:41.488Z,33.50
2019-04-03T15:40:09.290Z,31.17
2019-04-03T15:42:40.289Z,32.00
2019-04-03T15:45:09.364Z,33.23
2019-04-03T15:47:41.824Z,34.63
2019-04-03T15:50:08.802Z,31.10
2019-04-03T15:52:37.483Z,30.80
2019-04-03T15:55:06.561Z,30.90
2019-04-03T15:57:35.830Z,30.60
2019-04-03T16:00:07.696Z,29.20
2019-04-03T16:02:37.071Z,30.27
2019-04-03T16:05:06.838Z,32.60
2019-04-03T16:07:35.470Z,33.77
2019-04-03T16:10:04.908Z,37.70
2019-04-03T16:12:36.276Z,31.60
2019-04-03T16:15:05.349Z,35.83
2019-04-03T16:17:37.434Z,36.07
2019-04-03T16:20:05.880Z,38.10
2019-04-03T16:22:34.713Z,36.30
2019-04-03T16:25:03.885Z,36.33
2019-04-03T16:27:33.062Z,36.07
2019-04-03T16:30:01.999Z,36.10
2019-04-03T16:32:30.998Z,30.00
2019-04-03T16:35:00.330Z,29.93
2019-04-03T16:37:29.268Z,33.87
2019-04-03T16:39:58.190Z,33.27
2019-04-03T16:42:27.135Z,39.80
2019-04-03T16:44:58.312Z,33.37
2019-04-03T16:47:27.692Z,35.40
2019-04-03T16:49:57.149Z,29.97
2019-04-03T16:52:26.672Z,32.30
2019-04-03T16:54:56.046Z,36.03
2019-04-03T16:57:25.211Z,34.50
2019-04-03T16:59:54.532Z,30.17
2019-04-03T17:02:24.715Z,33.53
2019-04-03T17:04:53.851Z,29.63
2019-04-03T17:07:23.029Z,33.27
2019-04-03T17:09:52.560Z,34.30
2019-04-03T17:12:21.190Z,37.57
2019-04-03T17:14:50.139Z,36.10
2019-04-03T17:17:19.032Z,32.67
2019-04-03T17:19:51.349Z,31.70
2019-04-03T17:22:18.884Z,30.97
2019-04-03T17:24:49.477Z,32.50
2019-04-03T17:27:18.810Z,35.90
2019-04-03T17:29:48.146Z,35.47
2019-04-03T17:32:16.718Z,37.93
2019-04-03T17:34:46.311Z,32.93
2019-04-03T17:37:15.484Z,35.03
2019-04-03T17:39:45.712Z,35.50
2019-04-03T17:42:14.338Z,35.47
2019-04-03T17:44:44.759Z,38.07
2019-04-03T17:47:13.615Z,35.80
2019-04-03T17:49:42.264Z,32.63
2019-04-03T17:52:11.186Z,35.97
2019-04-03T17:54:39.832Z,39.23
2019-04-03T17:57:08.759Z,36.03
2019-04-03T17:59:37.760Z,37.27
2019-04-03T18:02:06.407Z,34.50
2019-04-03T18:04:35.229Z,35.13
2019-04-03T18:07:03.965Z,35.17
2019-04-03T18:09:33.218Z,38.07
2019-04-03T18:12:02.118Z,34.13
2019-04-03T18:14:30.761Z,32.43
2019-04-03T18:17:01.259Z,38.37
2019-04-03T18:19:37.300Z,33.90
2019-04-03T18:22:01.260Z,36.43
2019-04-03T18:24:30.469Z,34.07
2019-04-03T18:27:02.273Z,32.77
2019-04-03T18:29:30.110Z,36.13
2019-04-03T18:31:59.071Z,34.67
2019-04-03T18:34:27.700Z,38.60
2019-04-03T18:36:56.345Z,34.80
2019-04-03T18:39:25.243Z,33.77
2019-04-03T18:41:53.900Z,35.97
2019-04-03T18:44:26.054Z,37.30
2019-04-03T18:46:53.477Z,33.70
2019-04-03T18:49:22.136Z,33.10
2019-04-03T18:51:51.540Z,35.77
2019-04-03T18:54:20.429Z,35.97
2019-04-03T18:56:49.428Z,36.33
2019-04-03T18:59:18.622Z,34.63
2019-04-03T19:01:47.306Z,35.80
2019-04-03T19:04:15.976Z,37.23
2019-04-03T19:06:45.308Z,34.17
2019-04-03T19:09:14.639Z,37.17
2019-04-03T19:11:43.604Z,32.80
2019-04-03T19:14:12.662Z,33.93
2019-04-03T19:16:46.305Z,36.53
2019-04-03T19:19:12.003Z,36.37
2019-04-03T19:21:40.914Z,31.73
2019-04-03T19:24:09.635Z,38.40
2019-04-03T19:26:38.300Z,38.27
2019-04-03T19:29:07.568Z,36.33
2019-04-03T19:31:39.929Z,31.53
2019-04-03T19:34:07.709Z,34.03
2019-04-03T19:36:36.689Z,30.77
2019-04-03T19:39:07.669Z,33.67
2019-04-03T19:41:36.340Z,31.90
2019-04-03T19:44:05.321Z,38.07
2019-04-03T19:46:34.284Z,34.23
2019-04-03T19:49:03.309Z,32.47
2019-04-03T19:51:32.860Z,35.43
2019-04-03T19:54:01.976Z,34.20
2019-04-03T19:56:30.925Z,33.50
2019-04-03T19:59:00.220Z,37.87
2019-04-03T20:01:29.711Z,38.10
2019-04-03T20:03:58.616Z,31.03
2019-04-03T20:06:27.596Z,35.73
2019-04-03T20:08:56.908Z,36.83
2019-04-03T20:11:25.812Z,35.37
2019-04-03T20:13:54.543Z,36.43
2019-04-03T20:16:24.501Z,35.20
2019-04-03T20:18:56.263Z,35.40
2019-04-03T20:21:23.893Z,33.63
2019-04-03T20:23:53.112Z,34.53
2019-04-03T20:26:22.004Z,31.83
2019-04-03T20:28:51.303Z,35.13
2019-04-03T20:31:20.606Z,36.57
2019-04-03T20:33:49.603Z,29.63
2019-04-03T20:36:18.495Z,33.60
2019-04-03T20:38:49.502Z,31.23
2019-04-03T20:41:18.422Z,31.97
2019-04-03T20:43:47.429Z,30.83
2019-04-03T20:46:16.616Z,34.80
2019-04-03T20:48:45.837Z,33.20
2019-04-03T20:51:14.492Z,30.47
2019-04-03T20:53:43.145Z,35.07
2019-04-03T20:56:12.078Z,34.13
2019-04-03T20:58:41.110Z,36.50
2019-04-03T21:01:09.975Z,33.60
2019-04-03T21:03:39.245Z,35.17
2019-04-03T21:06:08.715Z,31.97
2019-04-03T21:08:37.410Z,31.53
2019-04-03T21:11:06.337Z,34.17
2019-04-03T21:13:35.026Z,35.17
2019-04-03T21:16:03.673Z,34.90
2019-04-03T21:18:32.313Z,30.87
2019-04-03T21:21:01.675Z,35.27
2019-04-03T21:23:33.301Z,33.37
2019-04-03T21:26:01.421Z,35.47
2019-04-03T21:28:30.644Z,34.33
2019-04-03T21:30:59.361Z,35.77
2019-04-03T21:33:30.488Z,28.93
2019-04-03T21:35:58.950Z,34.07
2019-04-03T21:38:28.146Z,29.50
2019-04-03T21:40:57.146Z,29.60
2019-04-03T21:43:27.229Z,30.30
2019-04-03T21:45:57.482Z,29.17
2019-04-03T21:48:26.376Z,35.70
2019-04-03T21:50:55.008Z,31.70
2019-04-03T21:53:24.374Z,30.13
2019-04-03T21:55:54.275Z,35.27
2019-04-03T21:58:23.473Z,29.23
2019-04-03T22:01:19.115Z,34.27
2019-04-03T22:03:50.604Z,28.30
2019-04-03T22:06:18.806Z,32.87
2019-04-03T22:08:48.020Z,28.87
2019-04-03T22:11:17.074Z,28.53
2019-04-03T22:13:45.782Z,29.20
2019-04-03T22:16:14.817Z,31.40
2019-04-03T22:18:43.423Z,31.30
2019-04-03T22:21:12.133Z,27.93
2019-04-03T22:23:40.780Z,30.20
2019-04-03T22:26:10.361Z,30.97
2019-04-03T22:28:39.273Z,27.47
2019-04-03T22:31:08.455Z,26.90
2019-04-03T22:33:37.127Z,31.80
2019-04-03T22:36:06.131Z,28.30
2019-04-03T22:38:37.245Z,28.30
2019-04-03T22:41:05.577Z,33.13
2019-04-03T22:43:34.189Z,31.60
2019-04-03T22:46:03.133Z,30.10
2019-04-03T22:48:32.328Z,31.73
2019-04-03T22:51:00.948Z,26.87
2019-04-03T22:53:29.898Z,27.83
2019-04-03T22:55:59.105Z,32.47
2019-04-03T22:58:27.995Z,33.00
2019-04-03T23:00:57.235Z,26.30
2019-04-03T23:03:27.874Z,29.63
2019-04-03T23:05:56.830Z,27.13
2019-04-03T23:08:25.455Z,30.63
2019-04-03T23:10:54.406Z,33.53
2019-04-03T23:13:23.393Z,31.77
2019-04-03T23:15:52.386Z,37.67
2019-04-03T23:18:21.278Z,28.27
2019-04-03T23:20:52.524Z,25.13
2019-04-03T23:23:20.347Z,22.73
2019-04-03T23:25:48.974Z,26.77
2019-04-03T23:28:18.176Z,26.93
2019-04-03T23:30:47.089Z,27.73
2019-04-03T23:33:17.632Z,26.47
2019-04-03T23:35:46.359Z,25.60
2019-04-03T23:38:15.039Z,29.47
2019-04-03T23:40:43.944Z,28.83
2019-04-03T23:43:12.565Z,27.87
2019-04-03T23:45:43.548Z,30.43
2019-04-03T23:48:11.891Z,28.87
2019-04-03T23:50:40.845Z,28.13
2019-04-03T23:53:09.851Z,28.97
2019-04-03T23:55:38.743Z,28.10
2019-04-03T23:58:10.630Z,27.13
